TAF KYKM
KYKM 090527Z 0906/1006 29008KT P6SM FEW060 FEW250 FM091800 29005KT P6SM BKN060 FM100000 31005KT P6SM BKN250=
METAR KYKM
WC KYKM
WS KYKM
WV KYKM